sensor_id;sensor_type;location;lat;lon;timestamp;P1;durP1;ratioP1;P2;durP2;ratioP2
26530;SDS011;14201;43.188;24.160;2022-10-18T00:00:30;15.35;;;6.60;;
26530;SDS011;14201;43.188;24.160;2022-10-18T00:02:55;9.88;;;5.93;;
26530;SDS011;14201;43.188;24.160;2022-10-18T00:05:21;10.05;;;6.30;;
26530;SDS011;14201;43.188;24.160;2022-10-18T00:07:46;10.45;;;6.10;;
26530;SDS011;14201;43.188;24.160;2022-10-18T00:10:12;9.82;;;5.60;;
26530;SDS011;14201;43.188;24.160;2022-10-18T00:12:38;10.45;;;6.22;;
26530;SDS011;14201;43.188;24.160;2022-10-18T00:15:04;9.27;;;6.53;;
26530;SDS011;14201;43.188;24.160;2022-10-18T00:17:33;7.97;;;5.95;;
26530;SDS011;14201;43.188;24.160;2022-10-18T00:20:00;10.95;;;5.78;;
26530;SDS011;14201;43.188;24.160;2022-10-18T00:22:25;8.85;;;5.90;;
26530;SDS011;14201;43.188;24.160;2022-10-18T00:24:51;7.60;;;5.53;;
26530;SDS011;14201;43.188;24.160;2022-10-18T00:27:16;8.05;;;5.63;;
26530;SDS011;14201;43.188;24.160;2022-10-18T00:29:42;7.53;;;5.65;;
26530;SDS011;14201;43.188;24.160;2022-10-18T00:32:08;9.18;;;5.78;;
26530;SDS011;14201;43.188;24.160;2022-10-18T00:34:36;9.82;;;6.13;;
26530;SDS011;14201;43.188;24.160;2022-10-18T00:37:03;14.00;;;6.40;;
26530;SDS011;14201;43.188;24.160;2022-10-18T00:39:28;9.27;;;6.10;;
26530;SDS011;14201;43.188;24.160;2022-10-18T00:41:54;10.77;;;5.82;;
26530;SDS011;14201;43.188;24.160;2022-10-18T00:47:07;6.93;;;5.28;;
26530;SDS011;14201;43.188;24.160;2022-10-18T00:49:39;6.45;;;5.15;;
26530;SDS011;14201;43.188;24.160;2022-10-18T00:52:12;12.15;;;5.63;;
26530;SDS011;14201;43.188;24.160;2022-10-18T00:54:43;9.27;;;5.65;;
26530;SDS011;14201;43.188;24.160;2022-10-18T00:57:10;7.22;;;5.60;;
26530;SDS011;14201;43.188;24.160;2022-10-18T00:59:37;8.20;;;5.30;;
26530;SDS011;14201;43.188;24.160;2022-10-18T01:02:04;8.40;;;5.22;;
26530;SDS011;14201;43.188;24.160;2022-10-18T01:04:31;8.13;;;5.55;;
26530;SDS011;14201;43.188;24.160;2022-10-18T01:07:02;7.45;;;5.25;;
26530;SDS011;14201;43.188;24.160;2022-10-18T01:10:09;8.48;;;5.75;;
26530;SDS011;14201;43.188;24.160;2022-10-18T01:21:06;10.73;;;5.63;;
26530;SDS011;14201;43.188;24.160;2022-10-18T01:26:57;8.27;;;5.72;;
26530;SDS011;14201;43.188;24.160;2022-10-18T01:32:54;8.43;;;5.97;;
26530;SDS011;14201;43.188;24.160;2022-10-18T01:35:28;7.30;;;4.72;;
26530;SDS011;14201;43.188;24.160;2022-10-18T01:37:59;7.55;;;5.05;;
26530;SDS011;14201;43.188;24.160;2022-10-18T01:40:28;10.98;;;5.00;;
26530;SDS011;14201;43.188;24.160;2022-10-18T01:42:56;8.82;;;5.25;;
26530;SDS011;14201;43.188;24.160;2022-10-18T01:45:21;6.53;;;4.90;;
26530;SDS011;14201;43.188;24.160;2022-10-18T01:47:49;7.38;;;5.03;;
26530;SDS011;14201;43.188;24.160;2022-10-18T01:50:21;9.63;;;5.32;;
26530;SDS011;14201;43.188;24.160;2022-10-18T01:52:55;6.63;;;4.97;;
26530;SDS011;14201;43.188;24.160;2022-10-18T01:55:23;7.22;;;5.30;;
26530;SDS011;14201;43.188;24.160;2022-10-18T01:58:03;6.95;;;4.93;;
26530;SDS011;14201;43.188;24.160;2022-10-18T02:00:40;6.78;;;4.75;;
26530;SDS011;14201;43.188;24.160;2022-10-18T02:05:58;8.10;;;5.20;;
26530;SDS011;14201;43.188;24.160;2022-10-18T02:11:03;12.55;;;5.30;;
26530;SDS011;14201;43.188;24.160;2022-10-18T02:16:18;8.25;;;5.30;;
26530;SDS011;14201;43.188;24.160;2022-10-18T02:19:13;9.00;;;5.47;;
26530;SDS011;14201;43.188;24.160;2022-10-18T02:21:40;6.75;;;5.13;;
26530;SDS011;14201;43.188;24.160;2022-10-18T02:24:08;8.15;;;5.13;;
26530;SDS011;14201;43.188;24.160;2022-10-18T02:26:36;9.55;;;5.57;;
26530;SDS011;14201;43.188;24.160;2022-10-18T02:29:02;7.15;;;5.20;;
26530;SDS011;14201;43.188;24.160;2022-10-18T02:36:45;6.45;;;4.35;;
26530;SDS011;14201;43.188;24.160;2022-10-18T02:39:24;6.65;;;4.65;;
26530;SDS011;14201;43.188;24.160;2022-10-18T02:41:54;7.70;;;4.93;;
26530;SDS011;14201;43.188;24.160;2022-10-18T02:44:21;10.35;;;5.40;;
26530;SDS011;14201;43.188;24.160;2022-10-18T02:46:46;7.53;;;5.10;;
26530;SDS011;14201;43.188;24.160;2022-10-18T02:49:12;8.07;;;5.20;;
26530;SDS011;14201;43.188;24.160;2022-10-18T02:51:38;6.45;;;4.97;;
26530;SDS011;14201;43.188;24.160;2022-10-18T02:54:04;6.78;;;5.22;;
26530;SDS011;14201;43.188;24.160;2022-10-18T02:56:30;6.93;;;4.82;;
26530;SDS011;14201;43.188;24.160;2022-10-18T02:58:56;8.88;;;5.30;;
26530;SDS011;14201;43.188;24.160;2022-10-18T03:01:21;5.68;;;4.75;;
26530;SDS011;14201;43.188;24.160;2022-10-18T03:03:47;8.60;;;5.20;;
26530;SDS011;14201;43.188;24.160;2022-10-18T03:06:13;7.32;;;4.57;;
26530;SDS011;14201;43.188;24.160;2022-10-18T03:08:39;6.03;;;4.78;;
26530;SDS011;14201;43.188;24.160;2022-10-18T03:11:05;6.95;;;5.05;;
26530;SDS011;14201;43.188;24.160;2022-10-18T03:13:30;7.45;;;5.18;;
26530;SDS011;14201;43.188;24.160;2022-10-18T03:15:58;9.68;;;5.72;;
26530;SDS011;14201;43.188;24.160;2022-10-18T03:18:23;9.75;;;5.00;;
26530;SDS011;14201;43.188;24.160;2022-10-18T03:20:49;9.35;;;5.53;;
26530;SDS011;14201;43.188;24.160;2022-10-18T03:23:15;8.18;;;5.22;;
26530;SDS011;14201;43.188;24.160;2022-10-18T03:25:40;7.53;;;5.05;;
26530;SDS011;14201;43.188;24.160;2022-10-18T03:28:06;9.50;;;5.32;;
26530;SDS011;14201;43.188;24.160;2022-10-18T03:30:32;7.55;;;5.68;;
26530;SDS011;14201;43.188;24.160;2022-10-18T03:32:58;7.40;;;5.55;;
26530;SDS011;14201;43.188;24.160;2022-10-18T03:35:23;8.32;;;5.05;;
26530;SDS011;14201;43.188;24.160;2022-10-18T03:37:49;8.68;;;5.82;;
26530;SDS011;14201;43.188;24.160;2022-10-18T03:40:15;6.97;;;5.15;;
26530;SDS011;14201;43.188;24.160;2022-10-18T03:42:41;8.13;;;5.47;;
26530;SDS011;14201;43.188;24.160;2022-10-18T03:45:06;7.25;;;5.05;;
26530;SDS011;14201;43.188;24.160;2022-10-18T03:47:32;7.05;;;4.90;;
26530;SDS011;14201;43.188;24.160;2022-10-18T03:49:58;6.78;;;4.88;;
26530;SDS011;14201;43.188;24.160;2022-10-18T03:52:23;6.38;;;4.80;;
26530;SDS011;14201;43.188;24.160;2022-10-18T03:54:49;7.22;;;5.15;;
26530;SDS011;14201;43.188;24.160;2022-10-18T03:57:14;7.60;;;4.88;;
26530;SDS011;14201;43.188;24.160;2022-10-18T03:59:40;6.57;;;4.85;;
26530;SDS011;14201;43.188;24.160;2022-10-18T04:02:05;7.43;;;4.70;;
26530;SDS011;14201;43.188;24.160;2022-10-18T04:04:31;8.45;;;4.85;;
26530;SDS011;14201;43.188;24.160;2022-10-18T04:06:57;6.55;;;4.95;;
26530;SDS011;14201;43.188;24.160;2022-10-18T04:09:22;6.60;;;4.75;;
26530;SDS011;14201;43.188;24.160;2022-10-18T04:11:51;9.30;;;5.13;;
26530;SDS011;14201;43.188;24.160;2022-10-18T04:14:16;8.52;;;5.30;;
26530;SDS011;14201;43.188;24.160;2022-10-18T04:16:45;6.25;;;5.10;;
26530;SDS011;14201;43.188;24.160;2022-10-18T04:19:11;6.80;;;4.90;;
26530;SDS011;14201;43.188;24.160;2022-10-18T04:21:36;6.55;;;5.20;;
26530;SDS011;14201;43.188;24.160;2022-10-18T04:24:02;7.63;;;4.82;;
26530;SDS011;14201;43.188;24.160;2022-10-18T04:26:28;33.63;;;5.90;;
26530;SDS011;14201;43.188;24.160;2022-10-18T04:28:53;9.32;;;4.97;;
26530;SDS011;14201;43.188;24.160;2022-10-18T04:31:19;9.25;;;5.43;;
26530;SDS011;14201;43.188;24.160;2022-10-18T04:33:44;6.03;;;5.00;;
26530;SDS011;14201;43.188;24.160;2022-10-18T04:36:10;7.45;;;4.85;;
26530;SDS011;14201;43.188;24.160;2022-10-18T04:38:36;7.57;;;5.45;;
26530;SDS011;14201;43.188;24.160;2022-10-18T04:41:01;9.40;;;5.68;;
26530;SDS011;14201;43.188;24.160;2022-10-18T04:43:27;6.05;;;4.75;;
26530;SDS011;14201;43.188;24.160;2022-10-18T04:45:53;12.73;;;5.53;;
26530;SDS011;14201;43.188;24.160;2022-10-18T04:48:19;12.80;;;5.57;;
26530;SDS011;14201;43.188;24.160;2022-10-18T04:50:48;24.95;;;6.00;;
26530;SDS011;14201;43.188;24.160;2022-10-18T04:53:15;11.82;;;4.05;;
26530;SDS011;14201;43.188;24.160;2022-10-18T04:55:42;8.15;;;5.45;;
26530;SDS011;14201;43.188;24.160;2022-10-18T04:58:09;7.10;;;5.28;;
26530;SDS011;14201;43.188;24.160;2022-10-18T05:00:36;8.65;;;6.47;;
26530;SDS011;14201;43.188;24.160;2022-10-18T05:03:02;9.38;;;6.38;;
26530;SDS011;14201;43.188;24.160;2022-10-18T05:05:28;10.63;;;6.28;;
26530;SDS011;14201;43.188;24.160;2022-10-18T05:07:53;8.52;;;6.32;;
26530;SDS011;14201;43.188;24.160;2022-10-18T05:10:19;18.63;;;6.60;;
26530;SDS011;14201;43.188;24.160;2022-10-18T05:12:44;8.30;;;5.47;;
26530;SDS011;14201;43.188;24.160;2022-10-18T05:15:10;13.38;;;6.00;;
26530;SDS011;14201;43.188;24.160;2022-10-18T05:17:36;12.70;;;5.80;;
26530;SDS011;14201;43.188;24.160;2022-10-18T05:20:01;7.47;;;5.22;;
26530;SDS011;14201;43.188;24.160;2022-10-18T05:22:27;7.93;;;5.55;;
26530;SDS011;14201;43.188;24.160;2022-10-18T05:24:53;10.77;;;5.22;;
26530;SDS011;14201;43.188;24.160;2022-10-18T05:27:18;9.55;;;4.60;;
26530;SDS011;14201;43.188;24.160;2022-10-18T05:29:44;8.30;;;5.03;;
26530;SDS011;14201;43.188;24.160;2022-10-18T05:32:10;8.55;;;4.95;;
26530;SDS011;14201;43.188;24.160;2022-10-18T05:34:35;8.10;;;4.60;;
26530;SDS011;14201;43.188;24.160;2022-10-18T05:37:01;7.07;;;4.80;;
26530;SDS011;14201;43.188;24.160;2022-10-18T05:39:27;12.13;;;7.57;;
26530;SDS011;14201;43.188;24.160;2022-10-18T05:41:52;16.10;;;7.70;;
26530;SDS011;14201;43.188;24.160;2022-10-18T05:44:18;18.33;;;9.02;;
26530;SDS011;14201;43.188;24.160;2022-10-18T05:46:43;14.93;;;8.20;;
26530;SDS011;14201;43.188;24.160;2022-10-18T05:49:10;14.77;;;8.45;;
26530;SDS011;14201;43.188;24.160;2022-10-18T05:51:36;9.20;;;5.30;;
26530;SDS011;14201;43.188;24.160;2022-10-18T05:54:02;8.45;;;4.82;;
26530;SDS011;14201;43.188;24.160;2022-10-18T05:56:27;6.40;;;4.07;;
26530;SDS011;14201;43.188;24.160;2022-10-18T05:58:53;8.55;;;4.70;;
26530;SDS011;14201;43.188;24.160;2022-10-18T06:03:44;7.65;;;4.32;;
26530;SDS011;14201;43.188;24.160;2022-10-18T06:06:11;8.57;;;4.40;;
26530;SDS011;14201;43.188;24.160;2022-10-18T06:08:38;6.57;;;3.90;;
26530;SDS011;14201;43.188;24.160;2022-10-18T06:11:09;5.65;;;4.10;;
26530;SDS011;14201;43.188;24.160;2022-10-18T06:13:42;7.07;;;4.20;;
26530;SDS011;14201;43.188;24.160;2022-10-18T06:16:12;7.25;;;4.20;;
26530;SDS011;14201;43.188;24.160;2022-10-18T06:18:39;8.40;;;3.83;;
26530;SDS011;14201;43.188;24.160;2022-10-18T06:21:06;5.55;;;3.75;;
26530;SDS011;14201;43.188;24.160;2022-10-18T06:23:32;5.45;;;3.90;;
26530;SDS011;14201;43.188;24.160;2022-10-18T06:25:59;7.72;;;3.83;;
26530;SDS011;14201;43.188;24.160;2022-10-18T06:28:26;6.45;;;4.13;;
26530;SDS011;14201;43.188;24.160;2022-10-18T06:30:52;7.63;;;3.92;;
26530;SDS011;14201;43.188;24.160;2022-10-18T06:33:18;5.28;;;3.53;;
26530;SDS011;14201;43.188;24.160;2022-10-18T06:35:52;6.60;;;4.07;;
26530;SDS011;14201;43.188;24.160;2022-10-18T06:38:21;6.55;;;3.65;;
26530;SDS011;14201;43.188;24.160;2022-10-18T06:40:47;9.02;;;4.03;;
26530;SDS011;14201;43.188;24.160;2022-10-18T06:43:13;7.63;;;3.60;;
26530;SDS011;14201;43.188;24.160;2022-10-18T06:52:55;6.88;;;3.42;;
26530;SDS011;14201;43.188;24.160;2022-10-18T06:55:20;6.43;;;3.97;;
26530;SDS011;14201;43.188;24.160;2022-10-18T06:57:46;10.13;;;4.00;;
26530;SDS011;14201;43.188;24.160;2022-10-18T07:00:11;6.07;;;4.20;;
26530;SDS011;14201;43.188;24.160;2022-10-18T07:02:38;9.27;;;3.92;;
26530;SDS011;14201;43.188;24.160;2022-10-18T07:05:05;9.30;;;3.97;;
26530;SDS011;14201;43.188;24.160;2022-10-18T07:07:32;7.82;;;3.75;;
26530;SDS011;14201;43.188;24.160;2022-10-18T07:09:57;7.20;;;3.88;;
26530;SDS011;14201;43.188;24.160;2022-10-18T07:12:23;8.38;;;3.78;;
26530;SDS011;14201;43.188;24.160;2022-10-18T07:14:49;9.05;;;3.70;;
26530;SDS011;14201;43.188;24.160;2022-10-18T07:17:14;7.75;;;3.40;;
26530;SDS011;14201;43.188;24.160;2022-10-18T07:19:40;3.97;;;2.85;;
26530;SDS011;14201;43.188;24.160;2022-10-18T07:22:05;3.42;;;2.60;;
26530;SDS011;14201;43.188;24.160;2022-10-18T07:24:31;4.68;;;3.22;;
26530;SDS011;14201;43.188;24.160;2022-10-18T07:26:57;8.82;;;3.17;;
26530;SDS011;14201;43.188;24.160;2022-10-18T07:29:22;4.65;;;3.08;;
26530;SDS011;14201;43.188;24.160;2022-10-18T07:31:48;3.95;;;2.65;;
26530;SDS011;14201;43.188;24.160;2022-10-18T07:34:14;6.93;;;2.90;;
26530;SDS011;14201;43.188;24.160;2022-10-18T07:36:39;3.72;;;2.28;;
26530;SDS011;14201;43.188;24.160;2022-10-18T07:39:06;4.88;;;2.42;;
26530;SDS011;14201;43.188;24.160;2022-10-18T07:41:31;5.10;;;2.83;;
26530;SDS011;14201;43.188;24.160;2022-10-18T07:43:58;4.65;;;2.42;;
26530;SDS011;14201;43.188;24.160;2022-10-18T07:46:25;7.15;;;3.13;;
26530;SDS011;14201;43.188;24.160;2022-10-18T07:48:51;5.93;;;2.63;;
26530;SDS011;14201;43.188;24.160;2022-10-18T07:51:17;3.97;;;2.17;;
26530;SDS011;14201;43.188;24.160;2022-10-18T07:53:43;3.92;;;2.50;;
26530;SDS011;14201;43.188;24.160;2022-10-18T07:56:10;4.30;;;2.72;;
26530;SDS011;14201;43.188;24.160;2022-10-18T07:58:45;3.97;;;2.50;;
26530;SDS011;14201;43.188;24.160;2022-10-18T08:01:12;7.00;;;2.67;;
26530;SDS011;14201;43.188;24.160;2022-10-18T08:03:39;4.65;;;2.75;;
26530;SDS011;14201;43.188;24.160;2022-10-18T08:06:06;5.18;;;2.97;;
26530;SDS011;14201;43.188;24.160;2022-10-18T08:08:34;4.00;;;2.10;;
26530;SDS011;14201;43.188;24.160;2022-10-18T08:11:01;5.53;;;2.63;;
26530;SDS011;14201;43.188;24.160;2022-10-18T08:13:28;5.80;;;2.47;;
26530;SDS011;14201;43.188;24.160;2022-10-18T08:16:01;3.35;;;2.05;;
26530;SDS011;14201;43.188;24.160;2022-10-18T08:18:29;3.75;;;1.92;;
26530;SDS011;14201;43.188;24.160;2022-10-18T08:20:55;4.95;;;2.08;;
26530;SDS011;14201;43.188;24.160;2022-10-18T08:23:23;3.97;;;2.10;;
26530;SDS011;14201;43.188;24.160;2022-10-18T08:25:48;3.78;;;2.10;;
26530;SDS011;14201;43.188;24.160;2022-10-18T08:28:14;3.80;;;1.83;;
26530;SDS011;14201;43.188;24.160;2022-10-18T08:30:41;5.90;;;2.30;;
26530;SDS011;14201;43.188;24.160;2022-10-18T08:33:07;5.53;;;2.38;;
26530;SDS011;14201;43.188;24.160;2022-10-18T08:35:33;4.35;;;2.30;;
26530;SDS011;14201;43.188;24.160;2022-10-18T08:37:58;6.95;;;2.05;;
26530;SDS011;14201;43.188;24.160;2022-10-18T08:40:24;5.68;;;2.33;;
26530;SDS011;14201;43.188;24.160;2022-10-18T08:45:18;6.15;;;2.78;;
26530;SDS011;14201;43.188;24.160;2022-10-18T08:47:45;5.88;;;2.38;;
26530;SDS011;14201;43.188;24.160;2022-10-18T08:50:15;11.98;;;2.42;;
26530;SDS011;14201;43.188;24.160;2022-10-18T08:55:29;5.38;;;2.25;;
26530;SDS011;14201;43.188;24.160;2022-10-18T08:58:14;3.53;;;2.28;;
26530;SDS011;14201;43.188;24.160;2022-10-18T09:00:49;3.55;;;2.03;;
26530;SDS011;14201;43.188;24.160;2022-10-18T09:03:46;6.30;;;2.25;;
26530;SDS011;14201;43.188;24.160;2022-10-18T09:09:27;3.92;;;2.30;;
26530;SDS011;14201;43.188;24.160;2022-10-18T09:22:42;12.60;;;2.63;;
26530;SDS011;14201;43.188;24.160;2022-10-18T09:25:30;6.20;;;2.47;;
26530;SDS011;14201;43.188;24.160;2022-10-18T09:36:50;5.60;;;2.78;;
26530;SDS011;14201;43.188;24.160;2022-10-18T09:39:24;7.75;;;2.53;;
26530;SDS011;14201;43.188;24.160;2022-10-18T09:48:02;5.93;;;2.22;;
26530;SDS011;14201;43.188;24.160;2022-10-18T09:51:22;6.88;;;2.40;;
26530;SDS011;14201;43.188;24.160;2022-10-18T09:56:38;4.70;;;2.10;;
26530;SDS011;14201;43.188;24.160;2022-10-18T09:59:21;6.90;;;2.40;;
26530;SDS011;14201;43.188;24.160;2022-10-18T10:01:56;5.28;;;2.50;;
26530;SDS011;14201;43.188;24.160;2022-10-18T10:04:22;4.15;;;2.05;;
26530;SDS011;14201;43.188;24.160;2022-10-18T10:06:51;7.63;;;2.88;;
26530;SDS011;14201;43.188;24.160;2022-10-18T10:09:26;3.17;;;2.15;;
26530;SDS011;14201;43.188;24.160;2022-10-18T10:11:54;5.03;;;2.28;;
26530;SDS011;14201;43.188;24.160;2022-10-18T10:14:21;5.60;;;1.83;;
26530;SDS011;14201;43.188;24.160;2022-10-18T10:19:59;2.60;;;1.50;;
26530;SDS011;14201;43.188;24.160;2022-10-18T10:22:37;5.00;;;1.50;;
26530;SDS011;14201;43.188;24.160;2022-10-18T10:25:04;5.55;;;1.40;;
26530;SDS011;14201;43.188;24.160;2022-10-18T10:27:52;5.60;;;1.65;;
26530;SDS011;14201;43.188;24.160;2022-10-18T10:30:28;2.00;;;1.30;;
26530;SDS011;14201;43.188;24.160;2022-10-18T10:32:57;2.45;;;1.55;;
26530;SDS011;14201;43.188;24.160;2022-10-18T10:38:02;5.20;;;1.60;;
26530;SDS011;14201;43.188;24.160;2022-10-18T10:40:29;6.32;;;1.98;;
26530;SDS011;14201;43.188;24.160;2022-10-18T10:43:14;8.02;;;1.67;;
26530;SDS011;14201;43.188;24.160;2022-10-18T10:48:23;7.72;;;1.85;;
26530;SDS011;14201;43.188;24.160;2022-10-18T10:51:09;6.65;;;2.38;;
26530;SDS011;14201;43.188;24.160;2022-10-18T10:56:19;24.80;;;2.90;;
26530;SDS011;14201;43.188;24.160;2022-10-18T10:59:07;4.22;;;1.83;;
26530;SDS011;14201;43.188;24.160;2022-10-18T11:01:37;4.75;;;1.77;;
26530;SDS011;14201;43.188;24.160;2022-10-18T11:04:23;10.35;;;1.80;;
26530;SDS011;14201;43.188;24.160;2022-10-18T11:09:29;3.80;;;1.70;;
26530;SDS011;14201;43.188;24.160;2022-10-18T11:12:02;2.80;;;1.67;;
26530;SDS011;14201;43.188;24.160;2022-10-18T11:14:37;2.35;;;1.60;;
26530;SDS011;14201;43.188;24.160;2022-10-18T11:17:22;7.30;;;1.65;;
26530;SDS011;14201;43.188;24.160;2022-10-18T11:22:28;7.72;;;1.70;;
26530;SDS011;14201;43.188;24.160;2022-10-18T11:25:00;3.30;;;1.42;;
26530;SDS011;14201;43.188;24.160;2022-10-18T11:27:40;4.82;;;1.48;;
26530;SDS011;14201;43.188;24.160;2022-10-18T11:30:33;3.75;;;1.83;;
26530;SDS011;14201;43.188;24.160;2022-10-18T11:33:05;2.97;;;1.60;;
26530;SDS011;14201;43.188;24.160;2022-10-18T11:35:50;6.75;;;1.60;;
26530;SDS011;14201;43.188;24.160;2022-10-18T11:38:35;3.10;;;1.60;;
26530;SDS011;14201;43.188;24.160;2022-10-18T11:44:06;4.25;;;1.52;;
26530;SDS011;14201;43.188;24.160;2022-10-18T11:51:58;5.32;;;1.52;;
26530;SDS011;14201;43.188;24.160;2022-10-18T12:05:15;4.15;;;1.55;;
26530;SDS011;14201;43.188;24.160;2022-10-18T12:08:15;8.32;;;1.85;;
26530;SDS011;14201;43.188;24.160;2022-10-18T12:10:39;4.30;;;1.67;;
26530;SDS011;14201;43.188;24.160;2022-10-18T12:13:07;4.70;;;1.73;;
26530;SDS011;14201;43.188;24.160;2022-10-18T12:15:41;2.40;;;1.45;;
26530;SDS011;14201;43.188;24.160;2022-10-18T12:18:12;2.45;;;1.55;;
26530;SDS011;14201;43.188;24.160;2022-10-18T12:20:41;4.10;;;1.60;;
26530;SDS011;14201;43.188;24.160;2022-10-18T12:23:20;4.63;;;1.73;;
26530;SDS011;14201;43.188;24.160;2022-10-18T12:26:22;28.27;;;2.53;;
26530;SDS011;14201;43.188;24.160;2022-10-18T12:28:57;3.92;;;1.80;;
26530;SDS011;14201;43.188;24.160;2022-10-18T12:31:48;4.25;;;1.80;;
26530;SDS011;14201;43.188;24.160;2022-10-18T12:34:31;2.95;;;1.90;;
26530;SDS011;14201;43.188;24.160;2022-10-18T12:40:24;6.40;;;1.80;;
26530;SDS011;14201;43.188;24.160;2022-10-18T12:43:02;6.78;;;1.90;;
26530;SDS011;14201;43.188;24.160;2022-10-18T12:45:34;2.38;;;1.48;;
26530;SDS011;14201;43.188;24.160;2022-10-18T12:53:38;5.30;;;1.88;;
26530;SDS011;14201;43.188;24.160;2022-10-18T12:59:38;2.50;;;1.88;;
26530;SDS011;14201;43.188;24.160;2022-10-18T13:09:27;3.40;;;1.42;;
26530;SDS011;14201;43.188;24.160;2022-10-18T13:11:58;3.53;;;1.00;;
26530;SDS011;14201;43.188;24.160;2022-10-18T13:28:21;5.70;;;1.08;;
26530;SDS011;14201;43.188;24.160;2022-10-18T13:30:56;1.52;;;1.00;;
26530;SDS011;14201;43.188;24.160;2022-10-18T13:33:29;2.97;;;0.90;;
26530;SDS011;14201;43.188;24.160;2022-10-18T13:35:58;2.70;;;0.93;;
26530;SDS011;14201;43.188;24.160;2022-10-18T13:46:23;304.50;;;14.55;;
26530;SDS011;14201;43.188;24.160;2022-10-18T14:00:07;4.47;;;1.23;;
26530;SDS011;14201;43.188;24.160;2022-10-18T14:05:45;4.07;;;1.17;;
26530;SDS011;14201;43.188;24.160;2022-10-18T14:08:18;3.72;;;1.27;;
26530;SDS011;14201;43.188;24.160;2022-10-18T14:11:32;5.75;;;2.58;;
26530;SDS011;14201;43.188;24.160;2022-10-18T14:21:51;42.50;;;2.97;;
26530;SDS011;14201;43.188;24.160;2022-10-18T15:54:28;23.30;;;5.90;;
26530;SDS011;14201;43.188;24.160;2022-10-18T15:56:55;21.98;;;5.88;;
26530;SDS011;14201;43.188;24.160;2022-10-18T15:59:22;15.50;;;5.45;;
26530;SDS011;14201;43.188;24.160;2022-10-18T16:01:49;13.38;;;5.75;;
26530;SDS011;14201;43.188;24.160;2022-10-18T16:04:19;13.27;;;5.95;;
26530;SDS011;14201;43.188;24.160;2022-10-18T16:06:47;16.08;;;5.75;;
26530;SDS011;14201;43.188;24.160;2022-10-18T16:09:14;24.27;;;9.38;;
26530;SDS011;14201;43.188;24.160;2022-10-18T16:11:42;16.13;;;7.30;;
26530;SDS011;14201;43.188;24.160;2022-10-18T16:14:08;11.07;;;4.78;;
26530;SDS011;14201;43.188;24.160;2022-10-18T16:16:34;20.98;;;6.00;;
26530;SDS011;14201;43.188;24.160;2022-10-18T16:18:59;20.38;;;6.90;;
26530;SDS011;14201;43.188;24.160;2022-10-18T16:21:29;19.88;;;4.13;;
26530;SDS011;14201;43.188;24.160;2022-10-18T16:24:02;17.00;;;5.07;;
26530;SDS011;14201;43.188;24.160;2022-10-18T16:26:29;11.52;;;3.63;;
26530;SDS011;14201;43.188;24.160;2022-10-18T16:28:56;10.15;;;3.10;;
26530;SDS011;14201;43.188;24.160;2022-10-18T16:31:25;10.07;;;3.05;;
26530;SDS011;14201;43.188;24.160;2022-10-18T16:33:52;13.23;;;4.43;;
26530;SDS011;14201;43.188;24.160;2022-10-18T16:36:20;16.98;;;3.75;;
26530;SDS011;14201;43.188;24.160;2022-10-18T16:38:48;17.20;;;3.67;;
26530;SDS011;14201;43.188;24.160;2022-10-18T16:41:14;17.38;;;5.22;;
26530;SDS011;14201;43.188;24.160;2022-10-18T16:43:40;11.63;;;5.07;;
26530;SDS011;14201;43.188;24.160;2022-10-18T16:46:18;13.10;;;4.97;;
26530;SDS011;14201;43.188;24.160;2022-10-18T16:48:48;20.52;;;5.22;;
26530;SDS011;14201;43.188;24.160;2022-10-18T16:51:15;13.82;;;4.85;;
26530;SDS011;14201;43.188;24.160;2022-10-18T16:53:42;8.10;;;3.92;;
26530;SDS011;14201;43.188;24.160;2022-10-18T16:56:27;15.27;;;5.25;;
26530;SDS011;14201;43.188;24.160;2022-10-18T16:58:57;14.60;;;4.05;;
26530;SDS011;14201;43.188;24.160;2022-10-18T17:01:23;11.50;;;5.38;;
26530;SDS011;14201;43.188;24.160;2022-10-18T17:03:49;14.98;;;5.40;;
26530;SDS011;14201;43.188;24.160;2022-10-18T17:06:26;12.65;;;3.90;;
26530;SDS011;14201;43.188;24.160;2022-10-18T17:08:54;9.82;;;3.00;;
26530;SDS011;14201;43.188;24.160;2022-10-18T17:26:05;8.98;;;4.00;;
26530;SDS011;14201;43.188;24.160;2022-10-18T17:30:56;5.70;;;2.63;;
26530;SDS011;14201;43.188;24.160;2022-10-18T17:33:22;16.65;;;3.13;;
26530;SDS011;14201;43.188;24.160;2022-10-18T17:35:47;6.93;;;2.88;;
26530;SDS011;14201;43.188;24.160;2022-10-18T17:38:13;11.10;;;2.80;;
26530;SDS011;14201;43.188;24.160;2022-10-18T17:40:39;13.95;;;3.08;;
26530;SDS011;14201;43.188;24.160;2022-10-18T17:43:06;11.63;;;3.22;;
26530;SDS011;14201;43.188;24.160;2022-10-18T17:45:32;9.82;;;3.50;;
26530;SDS011;14201;43.188;24.160;2022-10-18T17:47:58;5.95;;;2.80;;
26530;SDS011;14201;43.188;24.160;2022-10-18T17:50:23;6.75;;;2.90;;
26530;SDS011;14201;43.188;24.160;2022-10-18T17:52:49;9.32;;;2.65;;
26530;SDS011;14201;43.188;24.160;2022-10-18T17:55:14;9.32;;;2.80;;
26530;SDS011;14201;43.188;24.160;2022-10-18T17:57:41;9.77;;;2.50;;
26530;SDS011;14201;43.188;24.160;2022-10-18T18:00:08;7.55;;;2.47;;
26530;SDS011;14201;43.188;24.160;2022-10-18T18:02:36;11.80;;;3.67;;
26530;SDS011;14201;43.188;24.160;2022-10-18T18:05:02;8.63;;;4.00;;
26530;SDS011;14201;43.188;24.160;2022-10-18T18:07:28;12.10;;;3.75;;
26530;SDS011;14201;43.188;24.160;2022-10-18T18:09:54;13.70;;;4.05;;
26530;SDS011;14201;43.188;24.160;2022-10-18T18:12:19;15.02;;;4.90;;
26530;SDS011;14201;43.188;24.160;2022-10-18T18:14:45;17.38;;;3.42;;
26530;SDS011;14201;43.188;24.160;2022-10-18T18:17:11;12.60;;;4.35;;
26530;SDS011;14201;43.188;24.160;2022-10-18T18:19:37;7.68;;;3.72;;
26530;SDS011;14201;43.188;24.160;2022-10-18T18:22:02;9.25;;;4.25;;
26530;SDS011;14201;43.188;24.160;2022-10-18T18:24:29;9.45;;;3.85;;
26530;SDS011;14201;43.188;24.160;2022-10-18T18:26:55;5.90;;;3.42;;
26530;SDS011;14201;43.188;24.160;2022-10-18T18:29:21;5.53;;;3.08;;
26530;SDS011;14201;43.188;24.160;2022-10-18T18:31:48;12.10;;;3.50;;
26530;SDS011;14201;43.188;24.160;2022-10-18T18:34:14;11.63;;;3.17;;
26530;SDS011;14201;43.188;24.160;2022-10-18T18:36:41;10.70;;;3.47;;
26530;SDS011;14201;43.188;24.160;2022-10-18T18:39:09;9.40;;;3.90;;
26530;SDS011;14201;43.188;24.160;2022-10-18T18:41:42;11.40;;;4.07;;
26530;SDS011;14201;43.188;24.160;2022-10-18T18:44:08;11.82;;;4.10;;
26530;SDS011;14201;43.188;24.160;2022-10-18T18:46:34;9.48;;;4.03;;
26530;SDS011;14201;43.188;24.160;2022-10-18T18:49:03;6.75;;;3.90;;
26530;SDS011;14201;43.188;24.160;2022-10-18T18:51:30;8.32;;;4.50;;
26530;SDS011;14201;43.188;24.160;2022-10-18T18:53:57;13.07;;;4.60;;
26530;SDS011;14201;43.188;24.160;2022-10-18T18:56:24;11.18;;;4.60;;
26530;SDS011;14201;43.188;24.160;2022-10-18T18:58:51;14.60;;;3.72;;
26530;SDS011;14201;43.188;24.160;2022-10-18T19:01:18;12.55;;;4.35;;
26530;SDS011;14201;43.188;24.160;2022-10-18T19:03:47;15.02;;;4.47;;
26530;SDS011;14201;43.188;24.160;2022-10-18T19:06:15;246.82;;;15.82;;
26530;SDS011;14201;43.188;24.160;2022-10-18T19:08:49;11.40;;;4.13;;
26530;SDS011;14201;43.188;24.160;2022-10-18T19:11:18;12.82;;;4.93;;
26530;SDS011;14201;43.188;24.160;2022-10-18T19:13:46;8.18;;;3.90;;
26530;SDS011;14201;43.188;24.160;2022-10-18T19:16:23;10.50;;;4.47;;
26530;SDS011;14201;43.188;24.160;2022-10-18T19:21:16;11.85;;;5.35;;
26530;SDS011;14201;43.188;24.160;2022-10-18T19:23:42;13.68;;;5.25;;
26530;SDS011;14201;43.188;24.160;2022-10-18T19:26:11;9.23;;;4.65;;
26530;SDS011;14201;43.188;24.160;2022-10-18T19:28:41;15.40;;;5.20;;